sensor_id;sensor_type;location;lat;lon;timestamp;P1;durP1;ratioP1;P2;durP2;ratioP2
11334;SDS011;5722;42.620;23.374;2023-05-23T00:02:00;5.37;;;4.50;;
11334;SDS011;5722;42.620;23.374;2023-05-23T00:04:32;4.90;;;4.40;;
11334;SDS011;5722;42.620;23.374;2023-05-23T00:07:01;6.47;;;5.00;;
11334;SDS011;5722;42.620;23.374;2023-05-23T00:09:28;5.83;;;4.83;;
11334;SDS011;5722;42.620;23.374;2023-05-23T00:11:55;5.93;;;5.33;;
11334;SDS011;5722;42.620;23.374;2023-05-23T00:14:22;7.10;;;5.30;;
11334;SDS011;5722;42.620;23.374;2023-05-23T00:17:01;7.07;;;5.00;;
11334;SDS011;5722;42.620;23.374;2023-05-23T00:19:30;5.33;;;4.80;;
11334;SDS011;5722;42.620;23.374;2023-05-23T00:22:00;5.73;;;5.10;;
11334;SDS011;5722;42.620;23.374;2023-05-23T00:24:30;6.57;;;4.83;;
11334;SDS011;5722;42.620;23.374;2023-05-23T00:26:58;6.63;;;4.40;;
11334;SDS011;5722;42.620;23.374;2023-05-23T00:29:27;6.40;;;4.93;;
11334;SDS011;5722;42.620;23.374;2023-05-23T00:31:59;4.93;;;4.47;;
11334;SDS011;5722;42.620;23.374;2023-05-23T00:34:28;8.10;;;4.70;;
11334;SDS011;5722;42.620;23.374;2023-05-23T00:36:56;8.50;;;4.47;;
11334;SDS011;5722;42.620;23.374;2023-05-23T00:39:28;5.77;;;4.37;;
11334;SDS011;5722;42.620;23.374;2023-05-23T00:42:02;4.67;;;4.23;;
11334;SDS011;5722;42.620;23.374;2023-05-23T00:44:34;7.77;;;4.70;;
11334;SDS011;5722;42.620;23.374;2023-05-23T00:47:06;5.83;;;4.37;;
11334;SDS011;5722;42.620;23.374;2023-05-23T00:49:37;5.30;;;4.60;;
11334;SDS011;5722;42.620;23.374;2023-05-23T00:52:06;7.23;;;4.80;;
11334;SDS011;5722;42.620;23.374;2023-05-23T00:54:35;5.47;;;4.53;;
11334;SDS011;5722;42.620;23.374;2023-05-23T00:57:02;7.47;;;4.73;;
11334;SDS011;5722;42.620;23.374;2023-05-23T00:59:30;5.70;;;4.87;;
11334;SDS011;5722;42.620;23.374;2023-05-23T01:01:59;8.93;;;4.90;;
11334;SDS011;5722;42.620;23.374;2023-05-23T01:04:33;5.50;;;4.53;;
11334;SDS011;5722;42.620;23.374;2023-05-23T01:07:01;5.93;;;5.33;;
11334;SDS011;5722;42.620;23.374;2023-05-23T01:09:33;5.47;;;4.63;;
11334;SDS011;5722;42.620;23.374;2023-05-23T01:12:08;6.17;;;4.77;;
11334;SDS011;5722;42.620;23.374;2023-05-23T01:14:38;6.50;;;4.57;;
11334;SDS011;5722;42.620;23.374;2023-05-23T01:17:12;6.40;;;5.03;;
11334;SDS011;5722;42.620;23.374;2023-05-23T01:19:54;6.17;;;4.93;;
11334;SDS011;5722;42.620;23.374;2023-05-23T01:22:30;7.03;;;4.87;;
11334;SDS011;5722;42.620;23.374;2023-05-23T01:25:09;6.13;;;4.83;;
11334;SDS011;5722;42.620;23.374;2023-05-23T01:27:50;6.43;;;4.90;;
11334;SDS011;5722;42.620;23.374;2023-05-23T01:30:25;5.23;;;4.27;;
11334;SDS011;5722;42.620;23.374;2023-05-23T01:32:53;5.67;;;5.10;;
11334;SDS011;5722;42.620;23.374;2023-05-23T01:35:25;7.03;;;6.33;;
11334;SDS011;5722;42.620;23.374;2023-05-23T01:37:56;6.53;;;5.90;;
11334;SDS011;5722;42.620;23.374;2023-05-23T01:40:27;9.17;;;5.57;;
11334;SDS011;5722;42.620;23.374;2023-05-23T01:45:40;6.17;;;5.60;;
11334;SDS011;5722;42.620;23.374;2023-05-23T01:48:08;7.23;;;5.80;;
11334;SDS011;5722;42.620;23.374;2023-05-23T01:50:37;9.20;;;5.97;;
11334;SDS011;5722;42.620;23.374;2023-05-23T01:53:08;6.23;;;5.63;;
11334;SDS011;5722;42.620;23.374;2023-05-23T01:55:37;5.83;;;5.30;;
11334;SDS011;5722;42.620;23.374;2023-05-23T01:58:04;8.23;;;6.10;;
11334;SDS011;5722;42.620;23.374;2023-05-23T02:00:32;6.30;;;5.70;;
11334;SDS011;5722;42.620;23.374;2023-05-23T02:03:01;6.50;;;5.57;;
11334;SDS011;5722;42.620;23.374;2023-05-23T02:05:31;6.17;;;5.57;;
11334;SDS011;5722;42.620;23.374;2023-05-23T02:08:01;7.27;;;5.77;;
11334;SDS011;5722;42.620;23.374;2023-05-23T02:10:28;8.93;;;5.87;;
11334;SDS011;5722;42.620;23.374;2023-05-23T02:13:00;6.43;;;5.67;;
11334;SDS011;5722;42.620;23.374;2023-05-23T02:15:31;5.70;;;5.10;;
11334;SDS011;5722;42.620;23.374;2023-05-23T02:17:58;6.77;;;5.30;;
11334;SDS011;5722;42.620;23.374;2023-05-23T02:20:39;7.33;;;5.17;;
11334;SDS011;5722;42.620;23.374;2023-05-23T02:23:08;7.03;;;5.37;;
11334;SDS011;5722;42.620;23.374;2023-05-23T02:25:37;6.97;;;5.30;;
11334;SDS011;5722;42.620;23.374;2023-05-23T02:28:07;9.53;;;5.30;;
11334;SDS011;5722;42.620;23.374;2023-05-23T02:30:37;8.63;;;5.30;;
11334;SDS011;5722;42.620;23.374;2023-05-23T02:33:09;7.07;;;6.07;;
11334;SDS011;5722;42.620;23.374;2023-05-23T02:35:40;6.07;;;5.03;;
11334;SDS011;5722;42.620;23.374;2023-05-23T02:38:06;8.20;;;5.50;;
11334;SDS011;5722;42.620;23.374;2023-05-23T02:40:34;5.93;;;5.43;;
11334;SDS011;5722;42.620;23.374;2023-05-23T02:43:05;7.83;;;7.03;;
11334;SDS011;5722;42.620;23.374;2023-05-23T02:45:33;7.00;;;6.10;;
11334;SDS011;5722;42.620;23.374;2023-05-23T02:48:03;7.83;;;6.30;;
11334;SDS011;5722;42.620;23.374;2023-05-23T02:50:35;7.93;;;6.23;;
11334;SDS011;5722;42.620;23.374;2023-05-23T02:53:05;7.47;;;6.57;;
11334;SDS011;5722;42.620;23.374;2023-05-23T02:55:39;7.73;;;6.90;;
11334;SDS011;5722;42.620;23.374;2023-05-23T02:58:07;7.97;;;7.10;;
11334;SDS011;5722;42.620;23.374;2023-05-23T03:00:36;7.73;;;6.93;;
11334;SDS011;5722;42.620;23.374;2023-05-23T03:03:05;7.33;;;6.73;;
11334;SDS011;5722;42.620;23.374;2023-05-23T03:05:34;13.70;;;7.60;;
11334;SDS011;5722;42.620;23.374;2023-05-23T03:08:03;8.30;;;6.97;;
11334;SDS011;5722;42.620;23.374;2023-05-23T03:10:32;8.40;;;7.03;;
11334;SDS011;5722;42.620;23.374;2023-05-23T03:13:03;8.37;;;6.77;;
11334;SDS011;5722;42.620;23.374;2023-05-23T03:15:34;8.67;;;7.60;;
11334;SDS011;5722;42.620;23.374;2023-05-23T03:18:04;11.20;;;7.13;;
11334;SDS011;5722;42.620;23.374;2023-05-23T03:20:33;8.83;;;6.50;;
11334;SDS011;5722;42.620;23.374;2023-05-23T03:23:00;8.03;;;6.20;;
11334;SDS011;5722;42.620;23.374;2023-05-23T03:25:32;8.27;;;6.47;;
11334;SDS011;5722;42.620;23.374;2023-05-23T03:27:59;7.13;;;6.50;;
11334;SDS011;5722;42.620;23.374;2023-05-23T03:30:29;7.63;;;6.43;;
11334;SDS011;5722;42.620;23.374;2023-05-23T03:32:56;8.23;;;6.77;;
11334;SDS011;5722;42.620;23.374;2023-05-23T03:35:23;7.60;;;6.80;;
11334;SDS011;5722;42.620;23.374;2023-05-23T03:37:53;6.63;;;6.03;;
11334;SDS011;5722;42.620;23.374;2023-05-23T03:40:19;7.13;;;6.43;;
11334;SDS011;5722;42.620;23.374;2023-05-23T03:42:49;8.57;;;6.30;;
11334;SDS011;5722;42.620;23.374;2023-05-23T03:45:29;6.37;;;5.70;;
11334;SDS011;5722;42.620;23.374;2023-05-23T03:48:00;6.57;;;5.97;;
11334;SDS011;5722;42.620;23.374;2023-05-23T03:50:30;6.80;;;6.10;;
11334;SDS011;5722;42.620;23.374;2023-05-23T03:52:58;6.67;;;6.07;;
11334;SDS011;5722;42.620;23.374;2023-05-23T03:55:27;7.83;;;6.40;;
11334;SDS011;5722;42.620;23.374;2023-05-23T03:57:58;8.10;;;6.43;;
11334;SDS011;5722;42.620;23.374;2023-05-23T04:00:26;8.80;;;7.80;;
11334;SDS011;5722;42.620;23.374;2023-05-23T04:02:57;7.03;;;6.33;;
11334;SDS011;5722;42.620;23.374;2023-05-23T04:05:29;8.07;;;5.60;;
11334;SDS011;5722;42.620;23.374;2023-05-23T04:07:57;5.87;;;4.80;;
11334;SDS011;5722;42.620;23.374;2023-05-23T04:10:29;7.03;;;5.10;;
11334;SDS011;5722;42.620;23.374;2023-05-23T04:13:03;5.90;;;5.20;;
11334;SDS011;5722;42.620;23.374;2023-05-23T04:15:30;9.33;;;6.00;;
11334;SDS011;5722;42.620;23.374;2023-05-23T04:17:58;13.77;;;6.47;;
11334;SDS011;5722;42.620;23.374;2023-05-23T04:20:39;10.37;;;6.37;;
11334;SDS011;5722;42.620;23.374;2023-05-23T04:23:13;9.77;;;6.53;;
11334;SDS011;5722;42.620;23.374;2023-05-23T04:25:47;8.60;;;5.90;;
11334;SDS011;5722;42.620;23.374;2023-05-23T04:28:17;6.50;;;5.90;;
11334;SDS011;5722;42.620;23.374;2023-05-23T04:30:44;6.73;;;4.80;;
11334;SDS011;5722;42.620;23.374;2023-05-23T04:33:20;5.30;;;4.80;;
11334;SDS011;5722;42.620;23.374;2023-05-23T04:38:28;6.03;;;4.47;;
11334;SDS011;5722;42.620;23.374;2023-05-23T04:41:00;5.77;;;4.17;;
11334;SDS011;5722;42.620;23.374;2023-05-23T04:43:33;9.57;;;4.87;;
11334;SDS011;5722;42.620;23.374;2023-05-23T04:46:03;5.83;;;4.90;;
11334;SDS011;5722;42.620;23.374;2023-05-23T04:48:35;7.37;;;4.73;;
11334;SDS011;5722;42.620;23.374;2023-05-23T04:51:19;5.83;;;5.10;;
11334;SDS011;5722;42.620;23.374;2023-05-23T04:53:48;6.80;;;5.80;;
11334;SDS011;5722;42.620;23.374;2023-05-23T04:56:17;6.20;;;4.23;;
11334;SDS011;5722;42.620;23.374;2023-05-23T04:58:53;10.30;;;5.00;;
11334;SDS011;5722;42.620;23.374;2023-05-23T05:01:22;6.10;;;5.13;;
11334;SDS011;5722;42.620;23.374;2023-05-23T05:03:51;5.80;;;5.30;;
11334;SDS011;5722;42.620;23.374;2023-05-23T05:06:22;8.33;;;7.17;;
11334;SDS011;5722;42.620;23.374;2023-05-23T05:08:58;7.97;;;5.30;;
11334;SDS011;5722;42.620;23.374;2023-05-23T05:11:32;7.63;;;6.53;;
11334;SDS011;5722;42.620;23.374;2023-05-23T05:14:01;8.77;;;7.43;;
11334;SDS011;5722;42.620;23.374;2023-05-23T05:16:29;10.43;;;7.03;;
11334;SDS011;5722;42.620;23.374;2023-05-23T05:19:00;13.10;;;6.97;;
11334;SDS011;5722;42.620;23.374;2023-05-23T05:21:27;11.63;;;9.17;;
11334;SDS011;5722;42.620;23.374;2023-05-23T05:23:58;9.50;;;8.50;;
11334;SDS011;5722;42.620;23.374;2023-05-23T05:26:28;11.63;;;8.50;;
11334;SDS011;5722;42.620;23.374;2023-05-23T05:29:08;15.53;;;13.07;;
11334;SDS011;5722;42.620;23.374;2023-05-23T05:31:40;19.80;;;13.33;;
11334;SDS011;5722;42.620;23.374;2023-05-23T05:34:18;16.57;;;13.70;;
11334;SDS011;5722;42.620;23.374;2023-05-23T05:36:47;19.93;;;13.43;;
11334;SDS011;5722;42.620;23.374;2023-05-23T05:39:15;13.97;;;12.23;;
11334;SDS011;5722;42.620;23.374;2023-05-23T05:41:50;15.73;;;12.97;;
11334;SDS011;5722;42.620;23.374;2023-05-23T05:44:22;17.27;;;13.33;;
11334;SDS011;5722;42.620;23.374;2023-05-23T05:47:06;19.63;;;13.93;;
11334;SDS011;5722;42.620;23.374;2023-05-23T05:49:38;14.53;;;13.00;;
11334;SDS011;5722;42.620;23.374;2023-05-23T05:52:08;21.77;;;13.17;;
11334;SDS011;5722;42.620;23.374;2023-05-23T05:54:36;14.20;;;12.43;;
11334;SDS011;5722;42.620;23.374;2023-05-23T05:57:06;14.50;;;12.23;;
11334;SDS011;5722;42.620;23.374;2023-05-23T05:59:39;16.03;;;12.20;;
11334;SDS011;5722;42.620;23.374;2023-05-23T06:02:11;15.03;;;11.73;;
11334;SDS011;5722;42.620;23.374;2023-05-23T06:04:38;16.30;;;13.03;;
11334;SDS011;5722;42.620;23.374;2023-05-23T06:07:05;14.37;;;11.90;;
11334;SDS011;5722;42.620;23.374;2023-05-23T06:09:36;14.80;;;11.93;;
11334;SDS011;5722;42.620;23.374;2023-05-23T06:12:05;16.50;;;12.53;;
11334;SDS011;5722;42.620;23.374;2023-05-23T06:14:33;14.03;;;12.20;;
11334;SDS011;5722;42.620;23.374;2023-05-23T06:17:16;17.87;;;12.70;;
11334;SDS011;5722;42.620;23.374;2023-05-23T06:19:49;13.67;;;12.17;;
11334;SDS011;5722;42.620;23.374;2023-05-23T06:22:19;18.50;;;12.47;;
11334;SDS011;5722;42.620;23.374;2023-05-23T06:24:48;18.43;;;12.37;;
11334;SDS011;5722;42.620;23.374;2023-05-23T06:27:18;16.63;;;12.50;;
11334;SDS011;5722;42.620;23.374;2023-05-23T06:29:50;22.23;;;12.77;;
11334;SDS011;5722;42.620;23.374;2023-05-23T06:32:19;15.83;;;13.03;;
11334;SDS011;5722;42.620;23.374;2023-05-23T06:34:55;17.30;;;13.13;;
11334;SDS011;5722;42.620;23.374;2023-05-23T06:37:25;15.77;;;13.27;;
11334;SDS011;5722;42.620;23.374;2023-05-23T06:39:57;18.63;;;13.03;;
11334;SDS011;5722;42.620;23.374;2023-05-23T06:42:29;20.40;;;12.23;;
11334;SDS011;5722;42.620;23.374;2023-05-23T06:44:59;18.97;;;13.07;;
11334;SDS011;5722;42.620;23.374;2023-05-23T06:47:31;14.70;;;10.83;;
11334;SDS011;5722;42.620;23.374;2023-05-23T06:49:59;16.43;;;12.40;;
11334;SDS011;5722;42.620;23.374;2023-05-23T06:52:34;17.45;;;14.32;;
11334;SDS011;5722;42.620;23.374;2023-05-23T06:55:05;15.10;;;13.13;;
11334;SDS011;5722;42.620;23.374;2023-05-23T06:57:34;17.43;;;14.00;;
11334;SDS011;5722;42.620;23.374;2023-05-23T07:00:02;18.27;;;13.98;;
11334;SDS011;5722;42.620;23.374;2023-05-23T07:02:32;26.03;;;15.23;;
11334;SDS011;5722;42.620;23.374;2023-05-23T07:05:02;25.50;;;14.50;;
11334;SDS011;5722;42.620;23.374;2023-05-23T07:07:38;19.77;;;14.65;;
11334;SDS011;5722;42.620;23.374;2023-05-23T07:10:06;16.17;;;14.27;;
11334;SDS011;5722;42.620;23.374;2023-05-23T07:12:38;19.60;;;13.60;;
11334;SDS011;5722;42.620;23.374;2023-05-23T07:15:19;25.48;;;13.43;;
11334;SDS011;5722;42.620;23.374;2023-05-23T07:18:24;19.98;;;13.35;;
11334;SDS011;5722;42.620;23.374;2023-05-23T07:21:02;17.55;;;12.98;;
11334;SDS011;5722;42.620;23.374;2023-05-23T07:23:52;20.83;;;13.38;;
11334;SDS011;5722;42.620;23.374;2023-05-23T07:26:25;16.92;;;13.43;;
11334;SDS011;5722;42.620;23.374;2023-05-23T07:28:57;14.35;;;11.25;;
11334;SDS011;5722;42.620;23.374;2023-05-23T07:31:26;16.90;;;12.50;;
11334;SDS011;5722;42.620;23.374;2023-05-23T07:33:56;12.82;;;11.48;;
11334;SDS011;5722;42.620;23.374;2023-05-23T07:36:27;19.23;;;12.20;;
11334;SDS011;5722;42.620;23.374;2023-05-23T07:39:01;17.10;;;11.95;;
11334;SDS011;5722;42.620;23.374;2023-05-23T07:41:32;24.33;;;11.32;;
11334;SDS011;5722;42.620;23.374;2023-05-23T07:44:01;26.25;;;12.40;;
11334;SDS011;5722;42.620;23.374;2023-05-23T07:46:35;23.48;;;11.93;;
11334;SDS011;5722;42.620;23.374;2023-05-23T07:51:58;43.78;;;14.27;;
11334;SDS011;5722;42.620;23.374;2023-05-23T07:54:26;13.43;;;10.60;;
11334;SDS011;5722;42.620;23.374;2023-05-23T07:57:03;13.88;;;11.27;;
11334;SDS011;5722;42.620;23.374;2023-05-23T07:59:37;11.93;;;9.80;;
11334;SDS011;5722;42.620;23.374;2023-05-23T08:02:04;14.30;;;9.65;;
11334;SDS011;5722;42.620;23.374;2023-05-23T08:04:38;16.23;;;9.80;;
11334;SDS011;5722;42.620;23.374;2023-05-23T08:07:14;13.88;;;8.63;;
11334;SDS011;5722;42.620;23.374;2023-05-23T08:09:44;15.13;;;8.75;;
11334;SDS011;5722;42.620;23.374;2023-05-23T08:12:13;16.58;;;8.68;;
11334;SDS011;5722;42.620;23.374;2023-05-23T08:14:44;14.82;;;9.23;;
11334;SDS011;5722;42.620;23.374;2023-05-23T08:17:12;11.65;;;8.32;;
11334;SDS011;5722;42.620;23.374;2023-05-23T08:19:56;13.80;;;7.82;;
11334;SDS011;5722;42.620;23.374;2023-05-23T08:22:31;13.75;;;6.85;;
11334;SDS011;5722;42.620;23.374;2023-05-23T08:24:59;9.73;;;7.28;;
11334;SDS011;5722;42.620;23.374;2023-05-23T08:27:27;8.88;;;6.97;;
11334;SDS011;5722;42.620;23.374;2023-05-23T08:30:03;10.48;;;6.28;;
11334;SDS011;5722;42.620;23.374;2023-05-23T08:32:31;8.13;;;6.38;;
11334;SDS011;5722;42.620;23.374;2023-05-23T08:35:05;8.85;;;5.85;;
11334;SDS011;5722;42.620;23.374;2023-05-23T08:37:34;15.15;;;6.30;;
11334;SDS011;5722;42.620;23.374;2023-05-23T08:40:17;6.93;;;6.05;;
11334;SDS011;5722;42.620;23.374;2023-05-23T08:42:48;7.88;;;5.72;;
11334;SDS011;5722;42.620;23.374;2023-05-23T08:45:21;6.93;;;6.30;;
11334;SDS011;5722;42.620;23.374;2023-05-23T08:47:52;9.65;;;6.15;;
11334;SDS011;5722;42.620;23.374;2023-05-23T08:50:32;8.88;;;6.68;;
11334;SDS011;5722;42.620;23.374;2023-05-23T08:53:13;15.40;;;6.18;;
11334;SDS011;5722;42.620;23.374;2023-05-23T08:55:46;7.35;;;6.32;;
11334;SDS011;5722;42.620;23.374;2023-05-23T08:58:20;9.38;;;6.50;;
11334;SDS011;5722;42.620;23.374;2023-05-23T09:00:53;7.85;;;6.20;;
11334;SDS011;5722;42.620;23.374;2023-05-23T09:03:21;7.75;;;4.82;;
11334;SDS011;5722;42.620;23.374;2023-05-23T09:05:58;8.40;;;5.35;;
11334;SDS011;5722;42.620;23.374;2023-05-23T09:08:42;6.88;;;5.75;;
11334;SDS011;5722;42.620;23.374;2023-05-23T09:11:11;5.88;;;4.95;;
11334;SDS011;5722;42.620;23.374;2023-05-23T09:13:46;5.03;;;4.50;;
11334;SDS011;5722;42.620;23.374;2023-05-23T09:16:14;7.13;;;4.18;;
11334;SDS011;5722;42.620;23.374;2023-05-23T09:18:47;7.90;;;4.10;;
11334;SDS011;5722;42.620;23.374;2023-05-23T09:21:19;4.75;;;3.60;;
11334;SDS011;5722;42.620;23.374;2023-05-23T09:23:52;4.90;;;3.40;;
11334;SDS011;5722;42.620;23.374;2023-05-23T09:26:19;5.15;;;3.63;;
11334;SDS011;5722;42.620;23.374;2023-05-23T09:28:57;5.20;;;3.25;;
11334;SDS011;5722;42.620;23.374;2023-05-23T09:31:25;9.20;;;3.78;;
11334;SDS011;5722;42.620;23.374;2023-05-23T09:33:59;8.07;;;3.50;;
11334;SDS011;5722;42.620;23.374;2023-05-23T09:36:29;5.68;;;4.03;;
11334;SDS011;5722;42.620;23.374;2023-05-23T09:39:05;7.30;;;3.50;;
11334;SDS011;5722;42.620;23.374;2023-05-23T09:41:32;5.97;;;3.50;;
11334;SDS011;5722;42.620;23.374;2023-05-23T09:44:05;4.18;;;3.08;;
11334;SDS011;5722;42.620;23.374;2023-05-23T09:46:36;4.35;;;3.25;;
11334;SDS011;5722;42.620;23.374;2023-05-23T09:49:15;5.00;;;3.53;;
11334;SDS011;5722;42.620;23.374;2023-05-23T09:54:38;7.75;;;3.50;;
11334;SDS011;5722;42.620;23.374;2023-05-23T09:57:11;5.95;;;3.25;;
11334;SDS011;5722;42.620;23.374;2023-05-23T09:59:51;6.97;;;3.15;;
11334;SDS011;5722;42.620;23.374;2023-05-23T10:02:29;6.55;;;3.55;;
11334;SDS011;5722;42.620;23.374;2023-05-23T10:05:06;34.38;;;4.82;;
11334;SDS011;5722;42.620;23.374;2023-05-23T10:07:36;5.15;;;3.35;;
11334;SDS011;5722;42.620;23.374;2023-05-23T10:10:07;3.55;;;2.90;;
11334;SDS011;5722;42.620;23.374;2023-05-23T10:12:52;6.18;;;3.30;;
11334;SDS011;5722;42.620;23.374;2023-05-23T10:15:21;3.95;;;3.40;;
11334;SDS011;5722;42.620;23.374;2023-05-23T10:17:59;5.03;;;3.10;;
11334;SDS011;5722;42.620;23.374;2023-05-23T10:20:29;5.30;;;3.50;;
11334;SDS011;5722;42.620;23.374;2023-05-23T10:22:59;6.78;;;3.30;;
11334;SDS011;5722;42.620;23.374;2023-05-23T10:28:13;14.32;;;4.00;;
11334;SDS011;5722;42.620;23.374;2023-05-23T10:30:42;10.00;;;3.22;;
11334;SDS011;5722;42.620;23.374;2023-05-23T10:33:14;7.45;;;3.20;;
11334;SDS011;5722;42.620;23.374;2023-05-23T10:35:49;6.53;;;3.63;;
11334;SDS011;5722;42.620;23.374;2023-05-23T10:38:29;63.55;;;6.10;;
11334;SDS011;5722;42.620;23.374;2023-05-23T10:41:01;4.88;;;3.03;;
11334;SDS011;5722;42.620;23.374;2023-05-23T10:43:39;3.83;;;3.10;;
11334;SDS011;5722;42.620;23.374;2023-05-23T10:46:08;5.55;;;3.50;;
11334;SDS011;5722;42.620;23.374;2023-05-23T10:48:52;6.07;;;3.25;;
11334;SDS011;5722;42.620;23.374;2023-05-23T10:51:25;4.63;;;3.17;;
11334;SDS011;5722;42.620;23.374;2023-05-23T10:54:09;7.20;;;3.17;;
11334;SDS011;5722;42.620;23.374;2023-05-23T10:56:36;4.97;;;3.05;;
11334;SDS011;5722;42.620;23.374;2023-05-23T10:59:12;6.60;;;3.00;;
11334;SDS011;5722;42.620;23.374;2023-05-23T11:01:52;6.50;;;2.97;;
11334;SDS011;5722;42.620;23.374;2023-05-23T11:04:26;3.40;;;2.95;;
11334;SDS011;5722;42.620;23.374;2023-05-23T11:07:03;3.30;;;2.97;;
11334;SDS011;5722;42.620;23.374;2023-05-23T11:09:35;8.32;;;3.33;;
11334;SDS011;5722;42.620;23.374;2023-05-23T11:12:35;6.57;;;3.40;;
11334;SDS011;5722;42.620;23.374;2023-05-23T11:15:22;7.30;;;3.13;;
11334;SDS011;5722;42.620;23.374;2023-05-23T11:17:52;15.27;;;3.55;;
11334;SDS011;5722;42.620;23.374;2023-05-23T11:20:25;2.90;;;2.60;;
11334;SDS011;5722;42.620;23.374;2023-05-23T11:22:57;4.82;;;3.10;;
11334;SDS011;5722;42.620;23.374;2023-05-23T11:28:15;4.68;;;2.95;;
11334;SDS011;5722;42.620;23.374;2023-05-23T11:30:45;6.65;;;2.92;;
11334;SDS011;5722;42.620;23.374;2023-05-23T11:33:22;4.78;;;3.13;;
11334;SDS011;5722;42.620;23.374;2023-05-23T11:35:50;5.70;;;3.22;;
11334;SDS011;5722;42.620;23.374;2023-05-23T11:38:17;12.07;;;3.85;;
11334;SDS011;5722;42.620;23.374;2023-05-23T11:40:54;9.95;;;3.03;;
11334;SDS011;5722;42.620;23.374;2023-05-23T11:43:23;4.75;;;3.28;;
11334;SDS011;5722;42.620;23.374;2023-05-23T11:45:57;4.03;;;3.10;;
11334;SDS011;5722;42.620;23.374;2023-05-23T11:48:51;4.07;;;3.20;;
11334;SDS011;5722;42.620;23.374;2023-05-23T11:51:22;3.38;;;3.08;;
11334;SDS011;5722;42.620;23.374;2023-05-23T11:54:07;5.82;;;3.10;;
11334;SDS011;5722;42.620;23.374;2023-05-23T11:59:33;6.00;;;3.22;;
11334;SDS011;5722;42.620;23.374;2023-05-23T12:02:04;10.07;;;3.17;;
11334;SDS011;5722;42.620;23.374;2023-05-23T12:04:48;3.92;;;2.97;;
11334;SDS011;5722;42.620;23.374;2023-05-23T12:07:24;10.98;;;3.67;;
11334;SDS011;5722;42.620;23.374;2023-05-23T12:09:54;4.95;;;3.42;;
11334;SDS011;5722;42.620;23.374;2023-05-23T12:12:22;4.43;;;3.40;;
11334;SDS011;5722;42.620;23.374;2023-05-23T12:14:54;7.60;;;3.55;;
11334;SDS011;5722;42.620;23.374;2023-05-23T12:20:20;9.00;;;3.10;;
11334;SDS011;5722;42.620;23.374;2023-05-23T12:22:52;4.13;;;3.13;;
11334;SDS011;5722;42.620;23.374;2023-05-23T12:25:24;5.05;;;2.90;;
11334;SDS011;5722;42.620;23.374;2023-05-23T12:27:55;27.95;;;4.93;;
11334;SDS011;5722;42.620;23.374;2023-05-23T12:30:29;3.35;;;3.05;;
11334;SDS011;5722;42.620;23.374;2023-05-23T12:33:08;3.17;;;2.88;;
11334;SDS011;5722;42.620;23.374;2023-05-23T12:35:39;11.00;;;3.38;;
11334;SDS011;5722;42.620;23.374;2023-05-23T12:38:17;8.27;;;3.70;;
11334;SDS011;5722;42.620;23.374;2023-05-23T12:41:16;3.40;;;3.03;;
11334;SDS011;5722;42.620;23.374;2023-05-23T12:43:48;15.88;;;3.88;;
11334;SDS011;5722;42.620;23.374;2023-05-23T12:46:19;6.70;;;3.10;;
11334;SDS011;5722;42.620;23.374;2023-05-23T12:48:48;13.13;;;3.83;;
11334;SDS011;5722;42.620;23.374;2023-05-23T12:51:21;4.30;;;3.38;;
11334;SDS011;5722;42.620;23.374;2023-05-23T12:53:48;4.65;;;3.05;;
11334;SDS011;5722;42.620;23.374;2023-05-23T12:56:17;21.73;;;4.85;;
11334;SDS011;5722;42.620;23.374;2023-05-23T12:58:45;11.55;;;3.78;;
11334;SDS011;5722;42.620;23.374;2023-05-23T13:01:14;5.07;;;3.30;;
11334;SDS011;5722;42.620;23.374;2023-05-23T13:03:47;7.22;;;2.97;;
11334;SDS011;5722;42.620;23.374;2023-05-23T13:06:15;5.30;;;3.20;;
11334;SDS011;5722;42.620;23.374;2023-05-23T13:08:46;3.55;;;3.20;;
11334;SDS011;5722;42.620;23.374;2023-05-23T13:11:15;8.43;;;3.08;;
11334;SDS011;5722;42.620;23.374;2023-05-23T13:13:42;6.88;;;3.40;;
11334;SDS011;5722;42.620;23.374;2023-05-23T13:16:17;6.03;;;3.03;;
11334;SDS011;5722;42.620;23.374;2023-05-23T13:18:46;8.25;;;3.55;;
11334;SDS011;5722;42.620;23.374;2023-05-23T13:21:19;5.28;;;3.28;;
11334;SDS011;5722;42.620;23.374;2023-05-23T13:23:50;11.32;;;4.10;;
11334;SDS011;5722;42.620;23.374;2023-05-23T13:26:24;3.70;;;3.25;;
11334;SDS011;5722;42.620;23.374;2023-05-23T13:28:56;21.98;;;4.32;;
11334;SDS011;5722;42.620;23.374;2023-05-23T13:31:27;7.38;;;3.60;;
11334;SDS011;5722;42.620;23.374;2023-05-23T13:34:01;6.40;;;3.53;;
11334;SDS011;5722;42.620;23.374;2023-05-23T13:36:29;5.35;;;3.40;;
11334;SDS011;5722;42.620;23.374;2023-05-23T13:39:02;5.90;;;3.50;;
11334;SDS011;5722;42.620;23.374;2023-05-23T13:41:29;5.47;;;3.45;;
11334;SDS011;5722;42.620;23.374;2023-05-23T13:44:02;9.95;;;3.88;;
11334;SDS011;5722;42.620;23.374;2023-05-23T13:46:42;7.10;;;3.50;;
11334;SDS011;5722;42.620;23.374;2023-05-23T13:49:24;6.15;;;3.38;;
11334;SDS011;5722;42.620;23.374;2023-05-23T13:51:56;9.93;;;3.33;;
11334;SDS011;5722;42.620;23.374;2023-05-23T13:54:36;3.80;;;3.30;;
11334;SDS011;5722;42.620;23.374;2023-05-23T13:57:10;4.55;;;2.90;;
11334;SDS011;5722;42.620;23.374;2023-05-23T13:59:41;9.25;;;3.63;;
11334;SDS011;5722;42.620;23.374;2023-05-23T14:02:22;11.38;;;3.80;;
11334;SDS011;5722;42.620;23.374;2023-05-23T14:04:58;7.07;;;3.00;;
11334;SDS011;5722;42.620;23.374;2023-05-23T14:07:25;3.60;;;3.13;;
11334;SDS011;5722;42.620;23.374;2023-05-23T14:09:58;4.75;;;3.28;;
11334;SDS011;5722;42.620;23.374;2023-05-23T14:12:26;4.18;;;3.10;;
11334;SDS011;5722;42.620;23.374;2023-05-23T14:14:56;3.97;;;3.10;;
11334;SDS011;5722;42.620;23.374;2023-05-23T14:17:29;5.53;;;2.90;;
11334;SDS011;5722;42.620;23.374;2023-05-23T14:20:10;3.67;;;3.00;;
11334;SDS011;5722;42.620;23.374;2023-05-23T14:22:47;4.88;;;2.90;;
11334;SDS011;5722;42.620;23.374;2023-05-23T14:25:26;4.88;;;3.03;;
11334;SDS011;5722;42.620;23.374;2023-05-23T14:27:55;2.78;;;2.58;;
11334;SDS011;5722;42.620;23.374;2023-05-23T14:30:23;5.60;;;2.85;;
11334;SDS011;5722;42.620;23.374;2023-05-23T14:32:52;24.65;;;3.95;;
11334;SDS011;5722;42.620;23.374;2023-05-23T14:35:28;2.78;;;2.50;;
11334;SDS011;5722;42.620;23.374;2023-05-23T14:38:00;10.07;;;2.90;;
11334;SDS011;5722;42.620;23.374;2023-05-23T14:40:35;4.63;;;2.88;;
11334;SDS011;5722;42.620;23.374;2023-05-23T14:45:44;5.93;;;3.50;;
11334;SDS011;5722;42.620;23.374;2023-05-23T14:48:12;3.85;;;2.90;;
11334;SDS011;5722;42.620;23.374;2023-05-23T14:50:47;8.05;;;3.10;;
11334;SDS011;5722;42.620;23.374;2023-05-23T14:53:16;5.88;;;3.05;;
11334;SDS011;5722;42.620;23.374;2023-05-23T14:55:49;3.70;;;3.00;;
11334;SDS011;5722;42.620;23.374;2023-05-23T14:58:16;3.97;;;2.88;;
11334;SDS011;5722;42.620;23.374;2023-05-23T15:00:48;10.07;;;3.38;;
11334;SDS011;5722;42.620;23.374;2023-05-23T15:03:26;6.57;;;3.08;;
11334;SDS011;5722;42.620;23.374;2023-05-23T15:05:57;4.30;;;3.00;;
11334;SDS011;5722;42.620;23.374;2023-05-23T15:08:31;6.18;;;3.58;;
11334;SDS011;5722;42.620;23.374;2023-05-23T15:13:57;4.28;;;2.80;;
11334;SDS011;5722;42.620;23.374;2023-05-23T15:16:26;5.60;;;3.30;;
11334;SDS011;5722;42.620;23.374;2023-05-23T15:18:57;5.18;;;3.70;;
11334;SDS011;5722;42.620;23.374;2023-05-23T15:21:26;4.38;;;3.30;;
11334;SDS011;5722;42.620;23.374;2023-05-23T15:23:54;5.28;;;3.45;;
11334;SDS011;5722;42.620;23.374;2023-05-23T15:26:26;3.67;;;3.28;;
11334;SDS011;5722;42.620;23.374;2023-05-23T15:29:00;7.97;;;3.40;;
11334;SDS011;5722;42.620;23.374;2023-05-23T15:31:46;5.22;;;3.53;;
11334;SDS011;5722;42.620;23.374;2023-05-23T15:34:16;6.57;;;3.08;;
11334;SDS011;5722;42.620;23.374;2023-05-23T15:36:48;5.68;;;3.38;;
11334;SDS011;5722;42.620;23.374;2023-05-23T15:39:17;5.00;;;3.47;;